Black Rock, Arkansas
Current Conditions -  °F | °C
As of 9:35 PM on Friday 19 Dec 2014 (Local Time) from KARG Reporting Station
Overcast Overcast  
Wind Chill:   Ceiling: 3700
Heat Index:   Visibility: 8mi
Dew Point:   Wind: 6mph
Humidity: 81%   Direction: 40°NE
Pressure: 30.26"   Gusts: NA
Location:  36.11°N, 91.1°W
Report Text: KARG 200335Z AUTO 04005KT 8SM BKN037 OVC060 03/00 A3026 RMK AO1
Loading
Personal Weather Stations






























Interactive Weather Map New forecast layout! Learn more

10-Day Weather Forecast

Advertisements
Track Severe Weather on mobile